Aérodrome :
LOGIN :

S'inscrire | Disclaimer

   EN    FR    IT 

 










Légende :    VFR   VFR Marginal   IFR   IFR Intensif   IFR Très Intensif
Visi : 
Plafond : 
>= 8 km
>= 3000ft
5 à 8 km
1000 à 3000 ft
1500m à 5 km
500 à 1000 ft
800 à 1500m
200 à 500 ft
< 800m
< 200 ft
Symboles :   Orages  Brouillard  Fortes neiges  Fortes précipitations  Vent > 20 kt
SIGMETs :   Divers  Orages  Givrage  Turbulence  Onde Orograph.  Cendres Volcan.







- Altitude de l'aérodrome : 13 ft
- Code IATA : LYX
- Voir les cartes d'approche


EGMD - Lydd

DERNIER METAR :
  • 180620Z AUTO 11004KT 9999 FEW016/// SCT030/// BKN042/// 14/14 Q1003

METARs EXPIRÉS :
  • 180550Z AUTO 34006KT 5000 -RA FEW005/// BKN014/// BKN031/// 14/13 Q1004
  • 180520Z AUTO 27005KT 3800 -DZ BKN010/// BKN019/// BKN035/// 15/15 Q1004
  • 180450Z AUTO 23006KT 9999 -RA FEW026/// OVC049/// 15/14 Q1004
  • 180420Z AUTO 22008KT 9999 -RA FEW014/// SCT023/// 16/15 Q1004
  • 180350Z AUTO 21008KT 9999 -RA FEW021/// BKN026/// BKN032/// 16/14 Q1004

TAF AMD TAF EGMD
Valide du 18 à 06h jusqu'au 18 à 15h UTC


180539Z 1806/1815 VRB04KT 9999 SCT025
TEMPO 1806/1807 4000 -RADZ BKN009
BECMG 1809/1812 24018G28KT
PROB30
TEMPO 1810/1815 7000 SHRA
ATIS : +44 1797 322 422
Pas de NOTAMs connus pour ce terrain.



MET'MAP, la Météo Aéronautique d'un coup d'oeil ! - Copyright ORBIFLY Décembre 2007 - Disclaimer

ORBIFLY MET'MAP TEAM :

Programmation & Développement : Alexandra Zaïnal
Conception & Développement : Baudouin d'Aumeries
Co-Programmation & Développement : Marc-Olivier Méhu
Soutien technique & logistique : Manuel Goepfert

Contact : metmap@orbifly.com




SOURCES & CREDITS :

   NOAA